Port Elgin, Canada
Current Conditions -  °F | °C
As of 7:26 PM on Wednesday 17 Dec 2014 (Local Time) from CYVV Reporting Station
Light Snow Light Snow  
Wind Chill: 22°   Ceiling: 2200
Heat Index: 28°   Visibility: 4mi
Dew Point: 27°   Wind: 6mph
Humidity: 93%   Direction: 310°NW
Pressure: 29.93"   Gusts: NA
Location:  44.43°N, 81.39°W
Report Text: CYVV 180026Z 31005KT 280V340 4SM -SN FEW008 OVC022 M02/M03 A2993 RMK SF2SC6 SLP145
Loading
Personal Weather Stations






























Interactive Weather Map New forecast layout! Learn more

10-Day Weather Forecast

Advertisements
Track Severe Weather on mobile